PWSweather.com
Personal Weather Stations
Station Observations
PWSTHORN2
Thornton, Nh Usa, Thornton, NH 03285

Thornton, Nh UsaThornton, NH 03285

Lat: 43.8870699, Lon: -71.6632763

Elevation: 640

Station Type: Ambient WS 2080

Latest ConditionsUpdated 9:10:01 PM EDT Saturday, Oct 21, 2017
Currently Today's Max Today's Min Today's Average
Temperature 52.2°F11.2°C 83.1°F28.4°C 34.9°F1.6°C 54.2°F12.3°C
Dew Point 49.6°F9.8°C 80.3°F26.8°C 32.5°F0.3°C 51.6°F10.9°C
Winds Calm Calm 10.7 mph ESE17.2 kmh ESE - 1.4 mph 2.3 kmh
Wind Gusts 2.2 mph3.5 kmh 16.8 mph27.0 kmh - -
Humidity 91% 91% 91% 91%
Pressure 29.40 in995.6 mb 29.40 in995.6 mb 29.40 in995.6 mb -
Hour Temp Dew Point Humidity Winds Wind Gusts Pressure Precip Precip Rate Daily Precip Total
09:10 PM 52.2°F11.2°C 49.6°F9.8°C 91% Calm Calm 2.2 mph3.5 kmh 29.40 in995.6 mb 0.00 in0.0 mm 0.00 in0.0 mm 0.00 in0.0 mm
09:05 PM 52.2°F11.2°C 49.6°F9.8°C 91% Calm Calm 2.2 mph3.5 kmh 29.40 in995.6 mb 0.00 in0.0 mm 0.00 in0.0 mm 0.00 in0.0 mm
09:00 PM 52.5°F11.4°C 50.0°F10.0°C 91% 1.6 mph E2.6 kmh E 2.2 mph3.5 kmh 29.40 in995.6 mb 0.00 in0.0 mm 0.00 in0.0 mm 0.00 in0.0 mm
08:55 PM 53.2°F11.8°C 50.7°F10.4°C 91% 1.6 mph E2.6 kmh E 2.2 mph3.5 kmh 29.40 in995.6 mb 0.00 in0.0 mm 0.00 in0.0 mm 0.00 in0.0 mm
08:50 PM 53.8°F12.1°C 51.2°F10.7°C 91% Calm Calm 2.2 mph3.5 kmh 29.40 in995.6 mb 0.00 in0.0 mm 0.00 in0.0 mm 0.00 in0.0 mm
08:45 PM 53.8°F12.1°C 51.2°F10.7°C 91% 0.7 mph E1.1 kmh E 1.6 mph2.6 kmh 29.40 in995.6 mb 0.00 in0.0 mm 0.00 in0.0 mm 0.00 in0.0 mm
08:40 PM 53.6°F12.0°C 51.0°F10.6°C 91% Calm Calm 2.2 mph3.5 kmh 29.40 in995.6 mb 0.00 in0.0 mm 0.00 in0.0 mm 0.00 in0.0 mm
08:35 PM 53.8°F12.1°C 51.2°F10.7°C 91% 0.7 mph E1.1 kmh E 3.1 mph5.0 kmh 29.40 in995.6 mb 0.00 in0.0 mm 0.00 in0.0 mm 0.00 in0.0 mm
08:30 PM 54.3°F12.4°C 51.8°F11.0°C 91% 0.7 mph E1.1 kmh E 3.1 mph5.0 kmh 29.40 in995.6 mb 0.00 in0.0 mm 0.00 in0.0 mm 0.00 in0.0 mm
08:25 PM 54.5°F12.5°C 51.9°F11.1°C 91% 2.2 mph E3.5 kmh E 3.1 mph5.0 kmh 29.40 in995.6 mb 0.00 in0.0 mm 0.00 in0.0 mm 0.00 in0.0 mm
08:20 PM 54.7°F12.6°C 52.1°F11.2°C 91% Calm Calm 3.1 mph5.0 kmh 29.40 in995.6 mb 0.00 in0.0 mm 0.00 in0.0 mm 0.00 in0.0 mm
08:15 PM 54.9°F12.7°C 52.3°F11.3°C 91% Calm Calm 3.1 mph5.0 kmh 29.40 in995.6 mb 0.00 in0.0 mm 0.00 in0.0 mm 0.00 in0.0 mm
08:10 PM 55.4°F13.0°C 52.8°F11.6°C 91% 2.2 mph E3.5 kmh E 3.1 mph5.0 kmh 29.40 in995.6 mb 0.00 in0.0 mm 0.00 in0.0 mm 0.00 in0.0 mm
08:05 PM 56.1°F13.4°C 53.5°F11.9°C 91% 0.7 mph E1.1 kmh E 1.6 mph2.6 kmh 29.40 in995.6 mb 0.00 in0.0 mm 0.00 in0.0 mm 0.00 in0.0 mm
08:00 PM 56.7°F13.7°C 54.1°F12.3°C 91% Calm Calm 1.6 mph2.6 kmh 29.40 in995.6 mb 0.00 in0.0 mm 0.00 in0.0 mm 0.00 in0.0 mm
07:55 PM 56.8°F13.8°C 54.3°F12.4°C 91% Calm Calm -- 29.40 in995.6 mb 0.00 in0.0 mm 0.00 in0.0 mm 0.00 in0.0 mm
07:50 PM 57.0°F13.9°C 54.4°F12.4°C 91% Calm Calm 0.7 mph1.1 kmh 29.40 in995.6 mb 0.00 in0.0 mm 0.00 in0.0 mm 0.00 in0.0 mm
07:45 PM 57.0°F13.9°C 54.4°F12.4°C 91% Calm Calm 0.7 mph1.1 kmh 29.40 in995.6 mb 0.00 in0.0 mm 0.00 in0.0 mm 0.00 in0.0 mm
07:40 PM 57.0°F13.9°C 54.4°F12.4°C 91% Calm Calm 1.6 mph2.6 kmh 29.40 in995.6 mb 0.00 in0.0 mm 0.00 in0.0 mm 0.00 in0.0 mm
07:35 PM 57.4°F14.1°C 54.8°F12.7°C 91% Calm Calm 1.6 mph2.6 kmh 29.40 in995.6 mb 0.00 in0.0 mm 0.00 in0.0 mm 0.00 in0.0 mm
07:30 PM 57.7°F14.3°C 55.1°F12.8°C 91% 0.7 mph E1.1 kmh E 2.2 mph3.5 kmh 29.40 in995.6 mb 0.00 in0.0 mm 0.00 in0.0 mm 0.00 in0.0 mm
07:25 PM 57.9°F14.4°C 55.3°F12.9°C 91% Calm Calm 2.2 mph3.5 kmh 29.40 in995.6 mb 0.00 in0.0 mm 0.00 in0.0 mm 0.00 in0.0 mm
07:20 PM 58.3°F14.6°C 55.7°F13.2°C 91% 0.7 mph E1.1 kmh E 2.2 mph3.5 kmh 29.40 in995.6 mb 0.00 in0.0 mm 0.00 in0.0 mm 0.00 in0.0 mm
07:15 PM 58.6°F14.8°C 56.0°F13.3°C 91% 0.7 mph E1.1 kmh E 2.2 mph3.5 kmh 29.40 in995.6 mb 0.00 in0.0 mm 0.00 in0.0 mm 0.00 in0.0 mm
07:10 PM 59.2°F15.1°C 56.6°F13.7°C 91% 0.7 mph E1.1 kmh E 1.6 mph2.6 kmh 29.40 in995.6 mb 0.00 in0.0 mm 0.00 in0.0 mm 0.00 in0.0 mm
07:05 PM 59.4°F15.2°C 56.7°F13.7°C 91% Calm Calm 1.6 mph2.6 kmh 29.40 in995.6 mb 0.00 in0.0 mm 0.00 in0.0 mm 0.00 in0.0 mm
07:00 PM 59.7°F15.4°C 57.1°F13.9°C 91% Calm Calm 2.2 mph3.5 kmh 29.40 in995.6 mb 0.00 in0.0 mm 0.00 in0.0 mm 0.00 in0.0 mm
06:55 PM 59.9°F15.5°C 57.3°F14.1°C 91% Calm Calm 2.2 mph3.5 kmh 29.40 in995.6 mb 0.00 in0.0 mm 0.00 in0.0 mm 0.00 in0.0 mm
06:50 PM 60.1°F15.6°C 57.5°F14.2°C 91% 0.7 mph E1.1 kmh E 2.2 mph3.5 kmh 29.40 in995.6 mb 0.00 in0.0 mm 0.00 in0.0 mm 0.00 in0.0 mm
06:45 PM 60.4°F15.8°C 57.8°F14.3°C 91% Calm Calm 1.6 mph2.6 kmh 29.40 in995.6 mb 0.00 in0.0 mm 0.00 in0.0 mm 0.00 in0.0 mm
06:40 PM 60.8°F16.0°C 58.2°F14.6°C 91% 0.7 mph E1.1 kmh E 1.6 mph2.6 kmh 29.40 in995.6 mb 0.00 in0.0 mm 0.00 in0.0 mm 0.00 in0.0 mm
06:35 PM 61.3°F16.3°C 58.7°F14.8°C 91% Calm Calm 1.6 mph2.6 kmh 29.40 in995.6 mb 0.00 in0.0 mm 0.00 in0.0 mm 0.00 in0.0 mm
06:30 PM 61.5°F16.4°C 58.9°F14.9°C 91% 0.7 mph E1.1 kmh E 1.6 mph2.6 kmh 29.40 in995.6 mb 0.00 in0.0 mm 0.00 in0.0 mm 0.00 in0.0 mm
06:25 PM 61.7°F16.5°C 59.1°F15.1°C 91% Calm Calm 2.2 mph3.5 kmh 29.40 in995.6 mb 0.00 in0.0 mm 0.00 in0.0 mm 0.00 in0.0 mm
06:20 PM 61.5°F16.4°C 58.9°F14.9°C 91% Calm Calm 2.2 mph3.5 kmh 29.40 in995.6 mb 0.00 in0.0 mm 0.00 in0.0 mm 0.00 in0.0 mm
06:15 PM 62.1°F16.7°C 59.4°F15.2°C 91% 0.7 mph E1.1 kmh E 2.2 mph3.5 kmh 29.40 in995.6 mb 0.00 in0.0 mm 0.00 in0.0 mm 0.00 in0.0 mm
06:10 PM 63.0°F17.2°C 60.3°F15.7°C 91% 1.6 mph E2.6 kmh E 2.2 mph3.5 kmh 29.40 in995.6 mb 0.00 in0.0 mm 0.00 in0.0 mm 0.00 in0.0 mm
06:05 PM 63.5°F17.5°C 60.8°F16.0°C 91% Calm Calm 1.6 mph2.6 kmh 29.40 in995.6 mb 0.00 in0.0 mm 0.00 in0.0 mm 0.00 in0.0 mm
06:00 PM 64.2°F17.9°C 61.6°F16.4°C 91% 0.7 mph E1.1 kmh E 2.2 mph3.5 kmh 29.40 in995.6 mb 0.00 in0.0 mm 0.00 in0.0 mm 0.00 in0.0 mm
05:55 PM 65.3°F18.5°C 62.6°F17.0°C 91% 0.7 mph E1.1 kmh E 2.2 mph3.5 kmh 29.40 in995.6 mb 0.00 in0.0 mm 0.00 in0.0 mm 0.00 in0.0 mm
05:50 PM 65.8°F18.8°C 63.2°F17.3°C 91% 0.7 mph E1.1 kmh E 3.8 mph6.1 kmh 29.40 in995.6 mb 0.00 in0.0 mm 0.00 in0.0 mm 0.00 in0.0 mm
05:45 PM 66.0°F18.9°C 63.3°F17.4°C 91% Calm Calm 3.8 mph6.1 kmh 29.40 in995.6 mb 0.00 in0.0 mm 0.00 in0.0 mm 0.00 in0.0 mm
05:40 PM 66.9°F19.4°C 64.2°F17.9°C 91% 2.2 mph E3.5 kmh E 3.8 mph6.1 kmh 29.40 in995.6 mb 0.00 in0.0 mm 0.00 in0.0 mm 0.00 in0.0 mm
05:35 PM 68.5°F20.3°C 65.8°F18.8°C 91% 2.2 mph E3.5 kmh E 3.1 mph5.0 kmh 29.40 in995.6 mb 0.00 in0.0 mm 0.00 in0.0 mm 0.00 in0.0 mm
05:30 PM 70.5°F21.4°C 67.8°F19.9°C 91% 1.6 mph E2.6 kmh E 3.1 mph5.0 kmh 29.40 in995.6 mb 0.00 in0.0 mm 0.00 in0.0 mm 0.00 in0.0 mm
05:25 PM 71.6°F22.0°C 68.9°F20.5°C 91% 0.7 mph E1.1 kmh E 4.5 mph7.2 kmh 29.40 in995.6 mb 0.00 in0.0 mm 0.00 in0.0 mm 0.00 in0.0 mm
05:20 PM 72.3°F22.4°C 69.6°F20.9°C 91% 1.6 mph E2.6 kmh E 4.5 mph7.2 kmh 29.40 in995.6 mb 0.00 in0.0 mm 0.00 in0.0 mm 0.00 in0.0 mm
05:15 PM 72.7°F22.6°C 69.9°F21.1°C 91% 3.1 mph E5.0 kmh E 4.5 mph7.2 kmh 29.40 in995.6 mb 0.00 in0.0 mm 0.00 in0.0 mm 0.00 in0.0 mm
05:10 PM 73.2°F22.9°C 70.5°F21.4°C 91% 1.6 mph E2.6 kmh E 6.0 mph9.7 kmh 29.40 in995.6 mb 0.00 in0.0 mm 0.00 in0.0 mm 0.00 in0.0 mm
05:05 PM 73.6°F23.1°C 70.8°F21.6°C 91% 2.2 mph E3.5 kmh E 6.9 mph11.1 kmh 29.40 in995.6 mb 0.00 in0.0 mm 0.00 in0.0 mm 0.00 in0.0 mm
05:00 PM 74.3°F23.5°C 71.5°F21.9°C 91% 4.5 mph E7.2 kmh E 9.2 mph14.8 kmh 29.40 in995.6 mb 0.00 in0.0 mm 0.00 in0.0 mm 0.00 in0.0 mm
04:55 PM 74.7°F23.7°C 71.9°F22.2°C 91% 5.4 mph E8.7 kmh E 9.2 mph14.8 kmh 29.40 in995.6 mb 0.00 in0.0 mm 0.00 in0.0 mm 0.00 in0.0 mm
04:50 PM 75.0°F23.9°C 72.3°F22.4°C 91% 3.8 mph E6.1 kmh E 9.8 mph15.8 kmh 29.40 in995.6 mb 0.00 in0.0 mm 0.00 in0.0 mm 0.00 in0.0 mm
04:45 PM 75.2°F24.0°C 72.4°F22.4°C 91% 3.8 mph E6.1 kmh E 13.6 mph21.9 kmh 29.40 in995.6 mb 0.00 in0.0 mm 0.00 in0.0 mm 0.00 in0.0 mm
04:40 PM 75.6°F24.2°C 72.8°F22.7°C 91% 5.4 mph E8.7 kmh E 13.6 mph21.9 kmh 29.40 in995.6 mb 0.00 in0.0 mm 0.00 in0.0 mm 0.00 in0.0 mm
04:35 PM 75.7°F24.3°C 73.0°F22.8°C 91% 4.5 mph E7.2 kmh E 11.4 mph18.3 kmh 29.40 in995.6 mb 0.00 in0.0 mm 0.00 in0.0 mm 0.00 in0.0 mm
04:30 PM 76.1°F24.5°C 73.3°F22.9°C 91% 5.4 mph E8.7 kmh E 11.4 mph18.3 kmh 29.40 in995.6 mb 0.00 in0.0 mm 0.00 in0.0 mm 0.00 in0.0 mm
04:25 PM 76.3°F24.6°C 73.5°F23.1°C 91% 7.6 mph E12.2 kmh E 12.1 mph19.5 kmh 29.40 in995.6 mb 0.00 in0.0 mm 0.00 in0.0 mm 0.00 in0.0 mm
04:20 PM 76.1°F24.5°C 73.3°F22.9°C 91% 4.5 mph ESE7.2 kmh ESE 12.1 mph19.5 kmh 29.40 in995.6 mb 0.00 in0.0 mm 0.00 in0.0 mm 0.00 in0.0 mm
04:15 PM 76.1°F24.5°C 73.3°F22.9°C 91% 9.2 mph SE14.8 kmh SE 13.6 mph21.9 kmh 29.40 in995.6 mb 0.00 in0.0 mm 0.00 in0.0 mm 0.00 in0.0 mm
04:10 PM 76.1°F24.5°C 73.3°F22.9°C 91% 9.2 mph ESE14.8 kmh ESE 13.6 mph21.9 kmh 29.40 in995.6 mb 0.00 in0.0 mm 0.00 in0.0 mm 0.00 in0.0 mm
04:05 PM 76.3°F24.6°C 73.5°F23.1°C 91% 4.5 mph E7.2 kmh E 10.7 mph17.2 kmh 29.40 in995.6 mb 0.00 in0.0 mm 0.00 in0.0 mm 0.00 in0.0 mm
04:00 PM 75.9°F24.4°C 73.2°F22.9°C 91% 6.9 mph E11.1 kmh E 10.7 mph17.2 kmh 29.40 in995.6 mb 0.00 in0.0 mm 0.00 in0.0 mm 0.00 in0.0 mm
03:55 PM 75.6°F24.2°C 72.8°F22.7°C 91% 4.5 mph E7.2 kmh E 11.4 mph18.3 kmh 29.40 in995.6 mb 0.00 in0.0 mm 0.00 in0.0 mm 0.00 in0.0 mm
03:50 PM 75.4°F24.1°C 72.6°F22.6°C 91% 5.4 mph E8.7 kmh E 11.4 mph18.3 kmh 29.40 in995.6 mb 0.00 in0.0 mm 0.00 in0.0 mm 0.00 in0.0 mm
03:45 PM 75.4°F24.1°C 72.6°F22.6°C 91% 6.9 mph E11.1 kmh E 12.1 mph19.5 kmh 29.40 in995.6 mb 0.00 in0.0 mm 0.00 in0.0 mm 0.00 in0.0 mm
03:40 PM 75.4°F24.1°C 72.6°F22.6°C 91% 9.2 mph E14.8 kmh E 12.1 mph19.5 kmh 29.40 in995.6 mb 0.00 in0.0 mm 0.00 in0.0 mm 0.00 in0.0 mm
03:35 PM 75.2°F24.0°C 72.4°F22.4°C 91% 8.3 mph E13.4 kmh E 11.4 mph18.3 kmh 29.40 in995.6 mb 0.00 in0.0 mm 0.00 in0.0 mm 0.00 in0.0 mm
03:30 PM 75.6°F24.2°C 72.8°F22.7°C 91% 6.9 mph E11.1 kmh E 16.8 mph27.0 kmh 29.40 in995.6 mb 0.00 in0.0 mm 0.00 in0.0 mm 0.00 in0.0 mm
03:25 PM 75.7°F24.3°C 73.0°F22.8°C 91% 6.9 mph E11.1 kmh E 16.8 mph27.0 kmh 29.40 in995.6 mb 0.00 in0.0 mm 0.00 in0.0 mm 0.00 in0.0 mm
03:20 PM 76.1°F24.5°C 73.3°F22.9°C 91% 6.0 mph E9.7 kmh E 11.4 mph18.3 kmh 29.40 in995.6 mb 0.00 in0.0 mm 0.00 in0.0 mm 0.00 in0.0 mm
03:15 PM 75.9°F24.4°C 73.2°F22.9°C 91% 4.5 mph ESE7.2 kmh ESE 15.2 mph24.5 kmh 29.40 in995.6 mb 0.00 in0.0 mm 0.00 in0.0 mm 0.00 in0.0 mm
03:10 PM 76.1°F24.5°C 73.3°F22.9°C 91% 6.9 mph ESE11.1 kmh ESE 15.2 mph24.5 kmh 29.40 in995.6 mb 0.00 in0.0 mm 0.00 in0.0 mm 0.00 in0.0 mm
03:05 PM 76.5°F24.7°C 73.7°F23.2°C 91% 9.8 mph E15.8 kmh E 16.8 mph27.0 kmh 29.40 in995.6 mb 0.00 in0.0 mm 0.00 in0.0 mm 0.00 in0.0 mm
03:00 PM 76.6°F24.8°C 73.9°F23.3°C 91% 10.7 mph ESE17.2 kmh ESE 16.8 mph27.0 kmh 29.40 in995.6 mb 0.00 in0.0 mm 0.00 in0.0 mm 0.00 in0.0 mm
02:55 PM 77.0°F25.0°C 74.2°F23.4°C 91% 7.6 mph SE12.2 kmh SE 10.7 mph17.2 kmh 29.40 in995.6 mb 0.00 in0.0 mm 0.00 in0.0 mm 0.00 in0.0 mm
02:50 PM 77.5°F25.3°C 74.8°F23.8°C 91% 7.6 mph SE12.2 kmh SE 9.8 mph15.8 kmh 29.40 in995.6 mb 0.00 in0.0 mm 0.00 in0.0 mm 0.00 in0.0 mm
02:45 PM 78.1°F25.6°C 75.3°F24.1°C 91% 6.0 mph SE9.7 kmh SE 9.8 mph15.8 kmh 29.40 in995.6 mb 0.00 in0.0 mm 0.00 in0.0 mm 0.00 in0.0 mm
02:40 PM 77.5°F25.3°C 74.8°F23.8°C 91% 2.2 mph SE3.5 kmh SE 9.8 mph15.8 kmh 29.40 in995.6 mb 0.00 in0.0 mm 0.00 in0.0 mm 0.00 in0.0 mm
02:35 PM 77.9°F25.5°C 75.1°F23.9°C 91% 6.0 mph SE9.7 kmh SE 9.8 mph15.8 kmh 29.40 in995.6 mb 0.00 in0.0 mm 0.00 in0.0 mm 0.00 in0.0 mm
02:30 PM 77.9°F25.5°C 75.1°F23.9°C 91% 1.6 mph SE2.6 kmh SE 6.9 mph11.1 kmh 29.40 in995.6 mb 0.00 in0.0 mm 0.00 in0.0 mm 0.00 in0.0 mm
02:25 PM 78.6°F25.9°C 75.8°F24.3°C 91% 4.5 mph SE7.2 kmh SE 6.0 mph9.7 kmh 29.40 in995.6 mb 0.00 in0.0 mm 0.00 in0.0 mm 0.00 in0.0 mm
02:20 PM 81.0°F27.2°C 78.2°F25.7°C 91% 3.1 mph SE5.0 kmh SE 4.5 mph7.2 kmh 29.40 in995.6 mb 0.00 in0.0 mm 0.00 in0.0 mm 0.00 in0.0 mm
02:15 PM 82.8°F28.2°C 79.9°F26.6°C 91% 0.7 mph SE1.1 kmh SE 5.4 mph8.7 kmh 29.40 in995.6 mb 0.00 in0.0 mm 0.00 in0.0 mm 0.00 in0.0 mm
02:10 PM 82.9°F28.3°C 80.1°F26.7°C 91% 2.2 mph SE3.5 kmh SE 5.4 mph8.7 kmh 29.40 in995.6 mb 0.00 in0.0 mm 0.00 in0.0 mm 0.00 in0.0 mm
02:05 PM 83.1°F28.4°C 80.3°F26.8°C 91% 2.2 mph SE3.5 kmh SE 4.5 mph7.2 kmh 29.40 in995.6 mb 0.00 in0.0 mm 0.00 in0.0 mm 0.00 in0.0 mm
02:00 PM 82.2°F27.9°C 79.4°F26.3°C 91% 0.7 mph SE1.1 kmh SE 3.8 mph6.1 kmh 29.40 in995.6 mb 0.00 in0.0 mm 0.00 in0.0 mm 0.00 in0.0 mm
01:55 PM 80.8°F27.1°C 78.0°F25.6°C 91% 0.7 mph SE1.1 kmh SE 4.5 mph7.2 kmh 29.40 in995.6 mb 0.00 in0.0 mm 0.00 in0.0 mm 0.00 in0.0 mm
01:50 PM 80.6°F27.0°C 77.8°F25.4°C 91% 1.6 mph SE2.6 kmh SE 5.4 mph8.7 kmh 29.40 in995.6 mb 0.00 in0.0 mm 0.00 in0.0 mm 0.00 in0.0 mm
01:45 PM 80.8°F27.1°C 78.0°F25.6°C 91% 1.6 mph SE2.6 kmh SE 5.4 mph8.7 kmh 29.40 in995.6 mb 0.00 in0.0 mm 0.00 in0.0 mm 0.00 in0.0 mm
01:40 PM 79.3°F26.3°C 76.5°F24.7°C 91% 3.1 mph SE5.0 kmh SE 5.4 mph8.7 kmh 29.40 in995.6 mb 0.00 in0.0 mm 0.00 in0.0 mm 0.00 in0.0 mm
01:35 PM 77.5°F25.3°C 74.8°F23.8°C 91% 1.6 mph SE2.6 kmh SE 4.5 mph7.2 kmh 29.40 in995.6 mb 0.00 in0.0 mm 0.00 in0.0 mm 0.00 in0.0 mm
01:30 PM 75.9°F24.4°C 73.2°F22.9°C 91% 2.2 mph SE3.5 kmh SE 4.5 mph7.2 kmh 29.40 in995.6 mb 0.00 in0.0 mm 0.00 in0.0 mm 0.00 in0.0 mm
01:25 PM 75.6°F24.2°C 72.8°F22.7°C 91% 1.6 mph SE2.6 kmh SE 6.0 mph9.7 kmh 29.40 in995.6 mb 0.00 in0.0 mm 0.00 in0.0 mm 0.00 in0.0 mm
01:20 PM 76.5°F24.7°C 73.7°F23.2°C 91% 2.2 mph SE3.5 kmh SE 6.0 mph9.7 kmh 29.40 in995.6 mb 0.00 in0.0 mm 0.00 in0.0 mm 0.00 in0.0 mm
01:15 PM 77.0°F25.0°C 74.2°F23.4°C 91% 2.2 mph SE3.5 kmh SE 4.5 mph7.2 kmh 29.40 in995.6 mb 0.00 in0.0 mm 0.00 in0.0 mm 0.00 in0.0 mm
01:10 PM 77.2°F25.1°C 74.4°F23.6°C 91% 0.7 mph SE1.1 kmh SE 4.5 mph7.2 kmh 29.40 in995.6 mb 0.00 in0.0 mm 0.00 in0.0 mm 0.00 in0.0 mm
01:05 PM 75.4°F24.1°C 72.6°F22.6°C 91% 0.7 mph SE1.1 kmh SE 3.1 mph5.0 kmh 29.40 in995.6 mb 0.00 in0.0 mm 0.00 in0.0 mm 0.00 in0.0 mm
01:00 PM 73.9°F23.3°C 71.2°F21.8°C 91% 0.7 mph SE1.1 kmh SE 4.5 mph7.2 kmh 29.40 in995.6 mb 0.00 in0.0 mm 0.00 in0.0 mm 0.00 in0.0 mm
12:55 PM 74.3°F23.5°C 71.5°F21.9°C 91% 2.2 mph SE3.5 kmh SE 4.5 mph7.2 kmh 29.40 in995.6 mb 0.00 in0.0 mm 0.00 in0.0 mm 0.00 in0.0 mm
12:50 PM 75.6°F24.2°C 72.8°F22.7°C 91% 2.2 mph SE3.5 kmh SE 4.5 mph7.2 kmh 29.40 in995.6 mb 0.00 in0.0 mm 0.00 in0.0 mm 0.00 in0.0 mm
12:45 PM 74.3°F23.5°C 71.5°F21.9°C 91% 0.7 mph SE1.1 kmh SE 5.4 mph8.7 kmh 29.40 in995.6 mb 0.00 in0.0 mm 0.00 in0.0 mm 0.00 in0.0 mm
12:40 PM 73.6°F23.1°C 70.8°F21.6°C 91% 0.7 mph ESE1.1 kmh ESE 5.4 mph8.7 kmh 29.40 in995.6 mb 0.00 in0.0 mm 0.00 in0.0 mm 0.00 in0.0 mm
12:35 PM 72.0°F22.2°C 69.2°F20.7°C 91% 3.8 mph E6.1 kmh E 5.4 mph8.7 kmh 29.40 in995.6 mb 0.00 in0.0 mm 0.00 in0.0 mm 0.00 in0.0 mm
12:30 PM 71.2°F21.8°C 68.5°F20.3°C 91% 2.2 mph E3.5 kmh E 3.8 mph6.1 kmh 29.40 in995.6 mb 0.00 in0.0 mm 0.00 in0.0 mm 0.00 in0.0 mm
12:25 PM 70.7°F21.5°C 68.0°F20.0°C 91% 1.6 mph E2.6 kmh E 4.5 mph7.2 kmh 29.40 in995.6 mb 0.00 in0.0 mm 0.00 in0.0 mm 0.00 in0.0 mm
12:20 PM 70.3°F21.3°C 67.6°F19.8°C 91% 2.2 mph E3.5 kmh E 4.5 mph7.2 kmh 29.40 in995.6 mb 0.00 in0.0 mm 0.00 in0.0 mm 0.00 in0.0 mm
12:15 PM 70.0°F21.1°C 67.3°F19.6°C 91% 2.2 mph E3.5 kmh E 3.8 mph6.1 kmh 29.40 in995.6 mb 0.00 in0.0 mm 0.00 in0.0 mm 0.00 in0.0 mm
12:10 PM 69.8°F21.0°C 67.1°F19.5°C 91% 2.2 mph E3.5 kmh E 3.1 mph5.0 kmh 29.40 in995.6 mb 0.00 in0.0 mm 0.00 in0.0 mm 0.00 in0.0 mm
12:05 PM 69.4°F20.8°C 66.7°F19.3°C 91% 0.7 mph E1.1 kmh E 3.1 mph5.0 kmh 29.40 in995.6 mb 0.00 in0.0 mm 0.00 in0.0 mm 0.00 in0.0 mm
12:00 PM 68.4°F20.2°C 65.7°F18.7°C 91% Calm Calm 3.1 mph5.0 kmh 29.40 in995.6 mb 0.00 in0.0 mm 0.00 in0.0 mm 0.00 in0.0 mm
11:55 AM 67.1°F19.5°C 64.4°F18.0°C 91% 0.7 mph E1.1 kmh E 3.1 mph5.0 kmh 29.40 in995.6 mb 0.00 in0.0 mm 0.00 in0.0 mm 0.00 in0.0 mm
11:50 AM 66.9°F19.4°C 64.2°F17.9°C 91% 2.2 mph E3.5 kmh E 3.1 mph5.0 kmh 29.40 in995.6 mb 0.00 in0.0 mm 0.00 in0.0 mm 0.00 in0.0 mm
11:45 AM 65.8°F18.8°C 63.2°F17.3°C 91% 0.7 mph E1.1 kmh E 3.8 mph6.1 kmh 29.40 in995.6 mb 0.00 in0.0 mm 0.00 in0.0 mm 0.00 in0.0 mm
11:40 AM 65.5°F18.6°C 62.8°F17.1°C 91% 0.7 mph E1.1 kmh E 3.8 mph6.1 kmh 29.40 in995.6 mb 0.00 in0.0 mm 0.00 in0.0 mm 0.00 in0.0 mm
11:35 AM 64.9°F18.3°C 62.3°F16.8°C 91% 2.2 mph E3.5 kmh E 3.8 mph6.1 kmh 29.40 in995.6 mb 0.00 in0.0 mm 0.00 in0.0 mm 0.00 in0.0 mm
11:30 AM 63.7°F17.6°C 61.0°F16.1°C 91% Calm Calm 3.8 mph6.1 kmh 29.40 in995.6 mb 0.00 in0.0 mm 0.00 in0.0 mm 0.00 in0.0 mm
11:25 AM 62.6°F17.0°C 60.0°F15.6°C 91% 0.7 mph E1.1 kmh E 4.5 mph7.2 kmh 29.40 in995.6 mb 0.00 in0.0 mm 0.00 in0.0 mm 0.00 in0.0 mm
11:20 AM 61.7°F16.5°C 59.1°F15.1°C 91% 2.2 mph E3.5 kmh E 4.5 mph7.2 kmh 29.40 in995.6 mb 0.00 in0.0 mm 0.00 in0.0 mm 0.00 in0.0 mm
11:15 AM 61.3°F16.3°C 58.7°F14.8°C 91% 2.2 mph E3.5 kmh E 3.8 mph6.1 kmh 29.40 in995.6 mb 0.00 in0.0 mm 0.00 in0.0 mm 0.00 in0.0 mm
11:10 AM 60.6°F15.9°C 58.0°F14.4°C 91% 2.2 mph E3.5 kmh E 3.8 mph6.1 kmh 29.40 in995.6 mb 0.00 in0.0 mm 0.00 in0.0 mm 0.00 in0.0 mm
11:05 AM 59.9°F15.5°C 57.3°F14.1°C 91% 1.6 mph E2.6 kmh E 3.1 mph5.0 kmh 29.40 in995.6 mb 0.00 in0.0 mm 0.00 in0.0 mm 0.00 in0.0 mm
11:00 AM 59.7°F15.4°C 57.1°F13.9°C 91% 2.2 mph E3.5 kmh E 3.1 mph5.0 kmh 29.40 in995.6 mb 0.00 in0.0 mm 0.00 in0.0 mm 0.00 in0.0 mm
10:55 AM 59.5°F15.3°C 56.9°F13.8°C 91% 1.6 mph E2.6 kmh E 2.2 mph3.5 kmh 29.40 in995.6 mb 0.00 in0.0 mm 0.00 in0.0 mm 0.00 in0.0 mm
10:50 AM 57.7°F14.3°C 55.1°F12.8°C 91% Calm Calm 3.1 mph5.0 kmh 29.40 in995.6 mb 0.00 in0.0 mm 0.00 in0.0 mm 0.00 in0.0 mm
10:45 AM 56.8°F13.8°C 54.3°F12.4°C 91% 0.7 mph SE1.1 kmh SE 3.1 mph5.0 kmh 29.40 in995.6 mb 0.00 in0.0 mm 0.00 in0.0 mm 0.00 in0.0 mm
10:40 AM 56.1°F13.4°C 53.5°F11.9°C 91% 0.7 mph S1.1 kmh S 3.1 mph5.0 kmh 29.40 in995.6 mb 0.00 in0.0 mm 0.00 in0.0 mm 0.00 in0.0 mm
10:35 AM 55.4°F13.0°C 52.8°F11.6°C 91% Calm Calm 3.1 mph5.0 kmh 29.40 in995.6 mb 0.00 in0.0 mm 0.00 in0.0 mm 0.00 in0.0 mm
10:30 AM 54.9°F12.7°C 52.3°F11.3°C 91% Calm Calm 3.8 mph6.1 kmh 29.40 in995.6 mb 0.00 in0.0 mm 0.00 in0.0 mm 0.00 in0.0 mm
10:25 AM 54.7°F12.6°C 52.1°F11.2°C 91% 0.7 mph WNW1.1 kmh WNW 3.8 mph6.1 kmh 29.40 in995.6 mb 0.00 in0.0 mm 0.00 in0.0 mm 0.00 in0.0 mm
10:20 AM 54.5°F12.5°C 51.9°F11.1°C 91% 0.7 mph NW1.1 kmh NW 2.2 mph3.5 kmh 29.40 in995.6 mb 0.00 in0.0 mm 0.00 in0.0 mm 0.00 in0.0 mm
10:15 AM 53.6°F12.0°C 51.0°F10.6°C 91% 0.7 mph NW1.1 kmh NW 2.2 mph3.5 kmh 29.40 in995.6 mb 0.00 in0.0 mm 0.00 in0.0 mm 0.00 in0.0 mm
10:10 AM 54.0°F12.2°C 51.4°F10.8°C 91% 0.7 mph NW1.1 kmh NW 2.2 mph3.5 kmh 29.40 in995.6 mb 0.00 in0.0 mm 0.00 in0.0 mm 0.00 in0.0 mm
10:05 AM 54.1°F12.3°C 51.6°F10.9°C 91% Calm Calm 2.2 mph3.5 kmh 29.40 in995.6 mb 0.00 in0.0 mm 0.00 in0.0 mm 0.00 in0.0 mm
10:00 AM 52.7°F11.5°C 50.2°F10.1°C 91% Calm Calm 2.2 mph3.5 kmh 29.40 in995.6 mb 0.00 in0.0 mm 0.00 in0.0 mm 0.00 in0.0 mm
09:55 AM 51.1°F10.6°C 48.5°F9.2°C 91% 0.7 mph NW1.1 kmh NW 2.2 mph3.5 kmh 29.40 in995.6 mb 0.00 in0.0 mm 0.00 in0.0 mm 0.00 in0.0 mm
09:50 AM 49.6°F9.8°C 47.1°F8.4°C 91% 0.7 mph NW1.1 kmh NW 2.2 mph3.5 kmh 29.40 in995.6 mb 0.00 in0.0 mm 0.00 in0.0 mm 0.00 in0.0 mm
09:45 AM 49.3°F9.6°C 46.8°F8.2°C 91% Calm Calm 1.6 mph2.6 kmh 29.40 in995.6 mb 0.00 in0.0 mm 0.00 in0.0 mm 0.00 in0.0 mm
09:40 AM 48.6°F9.2°C 46.1°F7.8°C 91% Calm Calm 2.2 mph3.5 kmh 29.40 in995.6 mb 0.00 in0.0 mm 0.00 in0.0 mm 0.00 in0.0 mm
09:35 AM 47.7°F8.7°C 45.2°F7.3°C 91% Calm Calm 2.2 mph3.5 kmh 29.40 in995.6 mb 0.00 in0.0 mm 0.00 in0.0 mm 0.00 in0.0 mm
09:30 AM 47.3°F8.5°C 44.8°F7.1°C 91% Calm Calm 1.6 mph2.6 kmh 29.40 in995.6 mb 0.00 in0.0 mm 0.00 in0.0 mm 0.00 in0.0 mm
09:25 AM 46.6°F8.1°C 44.1°F6.7°C 91% Calm Calm 1.6 mph2.6 kmh 29.40 in995.6 mb 0.00 in0.0 mm 0.00 in0.0 mm 0.00 in0.0 mm
09:20 AM 45.7°F7.6°C 43.2°F6.2°C 91% 0.7 mph NW1.1 kmh NW 1.6 mph2.6 kmh 29.40 in995.6 mb 0.00 in0.0 mm 0.00 in0.0 mm 0.00 in0.0 mm
09:15 AM 45.0°F7.2°C 42.5°F5.8°C 91% 0.7 mph NW1.1 kmh NW 1.6 mph2.6 kmh 29.40 in995.6 mb 0.00 in0.0 mm 0.00 in0.0 mm 0.00 in0.0 mm
09:10 AM 44.1°F6.7°C 41.6°F5.3°C 91% Calm Calm 1.6 mph2.6 kmh 29.40 in995.6 mb 0.00 in0.0 mm 0.00 in0.0 mm 0.00 in0.0 mm
09:05 AM 43.3°F6.3°C 40.9°F4.9°C 91% Calm Calm 2.2 mph3.5 kmh 29.40 in995.6 mb 0.00 in0.0 mm 0.00 in0.0 mm 0.00 in0.0 mm
09:00 AM 42.4°F5.8°C 40.0°F4.4°C 91% 0.7 mph NW1.1 kmh NW 2.2 mph3.5 kmh 29.40 in995.6 mb 0.00 in0.0 mm 0.00 in0.0 mm 0.00 in0.0 mm
08:55 AM 41.7°F5.4°C 39.3°F4.1°C 91% Calm Calm 0.7 mph1.1 kmh 29.40 in995.6 mb 0.00 in0.0 mm 0.00 in0.0 mm 0.00 in0.0 mm
08:50 AM 40.1°F4.5°C 37.7°F3.2°C 91% Calm Calm 0.7 mph1.1 kmh 29.40 in995.6 mb 0.00 in0.0 mm 0.00 in0.0 mm 0.00 in0.0 mm
08:45 AM 38.5°F3.6°C 36.1°F2.3°C 91% Calm Calm 0.7 mph1.1 kmh 29.40 in995.6 mb 0.00 in0.0 mm 0.00 in0.0 mm 0.00 in0.0 mm
08:40 AM 37.2°F2.9°C 34.8°F1.6°C 91% Calm Calm 0.7 mph1.1 kmh 29.40 in995.6 mb 0.00 in0.0 mm 0.00 in0.0 mm 0.00 in0.0 mm
08:35 AM 37.0°F2.8°C 34.7°F1.5°C 91% Calm Calm 0.7 mph1.1 kmh 29.40 in995.6 mb 0.00 in0.0 mm 0.00 in0.0 mm 0.00 in0.0 mm
08:30 AM 36.9°F2.7°C 34.5°F1.4°C 91% Calm Calm 1.6 mph2.6 kmh 29.40 in995.6 mb 0.00 in0.0 mm 0.00 in0.0 mm 0.00 in0.0 mm
08:25 AM 36.5°F2.5°C 34.1°F1.2°C 91% Calm Calm 1.6 mph2.6 kmh 29.40 in995.6 mb 0.00 in0.0 mm 0.00 in0.0 mm 0.00 in0.0 mm
08:20 AM 36.1°F2.3°C 33.8°F1.0°C 91% Calm Calm 0.7 mph1.1 kmh 29.40 in995.6 mb 0.00 in0.0 mm 0.00 in0.0 mm 0.00 in0.0 mm
08:15 AM 36.0°F2.2°C 33.6°F0.9°C 91% Calm Calm 0.7 mph1.1 kmh 29.40 in995.6 mb 0.00 in0.0 mm 0.00 in0.0 mm 0.00 in0.0 mm
08:10 AM 35.8°F2.1°C 33.4°F0.8°C 91% Calm Calm 0.7 mph1.1 kmh 29.40 in995.6 mb 0.00 in0.0 mm 0.00 in0.0 mm 0.00 in0.0 mm
08:05 AM 35.6°F2.0°C 33.2°F0.7°C 91% Calm Calm 1.6 mph2.6 kmh 29.40 in995.6 mb 0.00 in0.0 mm 0.00 in0.0 mm 0.00 in0.0 mm
08:00 AM 35.1°F1.7°C 32.7°F0.4°C 91% Calm Calm 1.6 mph2.6 kmh 29.40 in995.6 mb 0.00 in0.0 mm 0.00 in0.0 mm 0.00 in0.0 mm
07:55 AM 35.1°F1.7°C 32.7°F0.4°C 91% Calm Calm 1.6 mph2.6 kmh 29.40 in995.6 mb 0.00 in0.0 mm 0.00 in0.0 mm 0.00 in0.0 mm
07:50 AM 35.2°F1.8°C 32.9°F0.5°C 91% Calm Calm 1.6 mph2.6 kmh 29.40 in995.6 mb 0.00 in0.0 mm 0.00 in0.0 mm 0.00 in0.0 mm
07:45 AM 35.2°F1.8°C 32.9°F0.5°C 91% Calm Calm 1.6 mph2.6 kmh 29.40 in995.6 mb 0.00 in0.0 mm 0.00 in0.0 mm 0.00 in0.0 mm
07:40 AM 35.1°F1.7°C 32.7°F0.4°C 91% Calm Calm 1.6 mph2.6 kmh 29.40 in995.6 mb 0.00 in0.0 mm 0.00 in0.0 mm 0.00 in0.0 mm
07:35 AM 34.9°F1.6°C 32.5°F0.3°C 91% 0.7 mph NW1.1 kmh NW 1.6 mph2.6 kmh 29.40 in995.6 mb 0.00 in0.0 mm 0.00 in0.0 mm 0.00 in0.0 mm
07:30 AM 34.9°F1.6°C 32.5°F0.3°C 91% Calm Calm 1.6 mph2.6 kmh 29.40 in995.6 mb 0.00 in0.0 mm 0.00 in0.0 mm 0.00 in0.0 mm
07:25 AM 35.1°F1.7°C 32.7°F0.4°C 91% Calm Calm 0.7 mph1.1 kmh 29.40 in995.6 mb 0.00 in0.0 mm 0.00 in0.0 mm 0.00 in0.0 mm
07:20 AM 35.1°F1.7°C 32.7°F0.4°C 91% Calm Calm 0.7 mph1.1 kmh 29.40 in995.6 mb 0.00 in0.0 mm 0.00 in0.0 mm 0.00 in0.0 mm
07:15 AM 34.9°F1.6°C 32.5°F0.3°C 91% Calm Calm 1.6 mph2.6 kmh 29.40 in995.6 mb 0.00 in0.0 mm 0.00 in0.0 mm 0.00 in0.0 mm
07:10 AM 35.1°F1.7°C 32.7°F0.4°C 91% Calm Calm 1.6 mph2.6 kmh 29.40 in995.6 mb 0.00 in0.0 mm 0.00 in0.0 mm 0.00 in0.0 mm
07:05 AM 35.4°F1.9°C 33.1°F0.6°C 91% Calm Calm 2.2 mph3.5 kmh 29.40 in995.6 mb 0.00 in0.0 mm 0.00 in0.0 mm 0.00 in0.0 mm
07:00 AM 35.8°F2.1°C 33.4°F0.8°C 91% Calm Calm 2.2 mph3.5 kmh 29.40 in995.6 mb 0.00 in0.0 mm 0.00 in0.0 mm 0.00 in0.0 mm
06:55 AM 35.4°F1.9°C 33.1°F0.6°C 91% 0.7 mph NW1.1 kmh NW 2.2 mph3.5 kmh 29.40 in995.6 mb 0.00 in0.0 mm 0.00 in0.0 mm 0.00 in0.0 mm
06:50 AM 35.4°F1.9°C 33.1°F0.6°C 91% 0.7 mph NW1.1 kmh NW 2.2 mph3.5 kmh 29.40 in995.6 mb 0.00 in0.0 mm 0.00 in0.0 mm 0.00 in0.0 mm
06:45 AM 35.6°F2.0°C 33.2°F0.7°C 91% 0.7 mph NW1.1 kmh NW 1.6 mph2.6 kmh 29.40 in995.6 mb 0.00 in0.0 mm 0.00 in0.0 mm 0.00 in0.0 mm
06:40 AM 35.6°F2.0°C 33.2°F0.7°C 91% Calm Calm 1.6 mph2.6 kmh 29.40 in995.6 mb 0.00 in0.0 mm 0.00 in0.0 mm 0.00 in0.0 mm
06:35 AM 35.8°F2.1°C 33.4°F0.8°C 91% 0.7 mph NW1.1 kmh NW 1.6 mph2.6 kmh 29.40 in995.6 mb 0.00 in0.0 mm 0.00 in0.0 mm 0.00 in0.0 mm
06:30 AM 36.0°F2.2°C 33.6°F0.9°C 91% Calm Calm 2.2 mph3.5 kmh 29.40 in995.6 mb 0.00 in0.0 mm 0.00 in0.0 mm 0.00 in0.0 mm
06:25 AM 36.0°F2.2°C 33.6°F0.9°C 91% Calm Calm 2.2 mph3.5 kmh 29.40 in995.6 mb 0.00 in0.0 mm 0.00 in0.0 mm 0.00 in0.0 mm
06:20 AM 36.1°F2.3°C 33.8°F1.0°C 91% 0.7 mph NW1.1 kmh NW 1.6 mph2.6 kmh 29.40 in995.6 mb 0.00 in0.0 mm 0.00 in0.0 mm 0.00 in0.0 mm
06:15 AM 36.3°F2.4°C 34.0°F1.1°C 91% Calm Calm 1.6 mph2.6 kmh 29.40 in995.6 mb 0.00 in0.0 mm 0.00 in0.0 mm 0.00 in0.0 mm
06:10 AM 36.5°F2.5°C 34.1°F1.2°C 91% Calm Calm 1.6 mph2.6 kmh 29.40 in995.6 mb 0.00 in0.0 mm 0.00 in0.0 mm 0.00 in0.0 mm
06:05 AM 36.7°F2.6°C 34.3°F1.3°C 91% 0.7 mph NW1.1 kmh NW 2.2 mph3.5 kmh 29.40 in995.6 mb 0.00 in0.0 mm 0.00 in0.0 mm 0.00 in0.0 mm
06:00 AM 36.7°F2.6°C 34.3°F1.3°C 91% Calm Calm 2.2 mph3.5 kmh 29.40 in995.6 mb 0.00 in0.0 mm 0.00 in0.0 mm 0.00 in0.0 mm
05:55 AM 36.7°F2.6°C 34.3°F1.3°C 91% Calm Calm 1.6 mph2.6 kmh 29.40 in995.6 mb 0.00 in0.0 mm 0.00 in0.0 mm 0.00 in0.0 mm
05:50 AM 36.9°F2.7°C 34.5°F1.4°C 91% Calm Calm 2.2 mph3.5 kmh 29.40 in995.6 mb 0.00 in0.0 mm 0.00 in0.0 mm 0.00 in0.0 mm
05:45 AM 37.0°F2.8°C 34.7°F1.5°C 91% Calm Calm 2.2 mph3.5 kmh 29.40 in995.6 mb 0.00 in0.0 mm 0.00 in0.0 mm 0.00 in0.0 mm
05:40 AM 37.2°F2.9°C 34.8°F1.6°C 91% Calm Calm 1.6 mph2.6 kmh 29.40 in995.6 mb 0.00 in0.0 mm 0.00 in0.0 mm 0.00 in0.0 mm
05:35 AM 37.2°F2.9°C 34.8°F1.6°C 91% Calm Calm 1.6 mph2.6 kmh 29.40 in995.6 mb 0.00 in0.0 mm 0.00 in0.0 mm 0.00 in0.0 mm
05:30 AM 37.4°F3.0°C 35.0°F1.7°C 91% Calm Calm 1.6 mph2.6 kmh 29.40 in995.6 mb 0.00 in0.0 mm 0.00 in0.0 mm 0.00 in0.0 mm
05:25 AM 37.4°F3.0°C 35.0°F1.7°C 91% Calm Calm 1.6 mph2.6 kmh 29.40 in995.6 mb 0.00 in0.0 mm 0.00 in0.0 mm 0.00 in0.0 mm
05:20 AM 37.6°F3.1°C 35.2°F1.8°C 91% Calm Calm 1.6 mph2.6 kmh 29.40 in995.6 mb 0.00 in0.0 mm 0.00 in0.0 mm 0.00 in0.0 mm
05:15 AM 37.8°F3.2°C 35.4°F1.9°C 91% 0.7 mph NW1.1 kmh NW 1.6 mph2.6 kmh 29.40 in995.6 mb 0.00 in0.0 mm 0.00 in0.0 mm 0.00 in0.0 mm
05:10 AM 37.6°F3.1°C 35.2°F1.8°C 91% Calm Calm 1.6 mph2.6 kmh 29.40 in995.6 mb 0.00 in0.0 mm 0.00 in0.0 mm 0.00 in0.0 mm
05:05 AM 37.8°F3.2°C 35.4°F1.9°C 91% Calm Calm 1.6 mph2.6 kmh 29.40 in995.6 mb 0.00 in0.0 mm 0.00 in0.0 mm 0.00 in0.0 mm
05:00 AM 37.8°F3.2°C 35.4°F1.9°C 91% 0.7 mph NW1.1 kmh NW 1.6 mph2.6 kmh 29.40 in995.6 mb 0.00 in0.0 mm 0.00 in0.0 mm 0.00 in0.0 mm
04:55 AM 38.1°F3.4°C 35.7°F2.1°C 91% Calm Calm 1.6 mph2.6 kmh 29.40 in995.6 mb 0.00 in0.0 mm 0.00 in0.0 mm 0.00 in0.0 mm
04:50 AM 38.3°F3.5°C 35.9°F2.2°C 91% Calm Calm 1.6 mph2.6 kmh 29.40 in995.6 mb 0.00 in0.0 mm 0.00 in0.0 mm 0.00 in0.0 mm
04:45 AM 38.5°F3.6°C 36.1°F2.3°C 91% Calm Calm 1.6 mph2.6 kmh 29.40 in995.6 mb 0.00 in0.0 mm 0.00 in0.0 mm 0.00 in0.0 mm
04:40 AM 38.7°F3.7°C 36.3°F2.4°C 91% 0.7 mph NW1.1 kmh NW 1.6 mph2.6 kmh 29.40 in995.6 mb 0.00 in0.0 mm 0.00 in0.0 mm 0.00 in0.0 mm
04:35 AM 38.7°F3.7°C 36.3°F2.4°C 91% Calm Calm 1.6 mph2.6 kmh 29.40 in995.6 mb 0.00 in0.0 mm 0.00 in0.0 mm 0.00 in0.0 mm
04:30 AM 38.8°F3.8°C 36.4°F2.4°C 91% Calm Calm 1.6 mph2.6 kmh 29.40 in995.6 mb 0.00 in0.0 mm 0.00 in0.0 mm 0.00 in0.0 mm
04:25 AM 39.0°F3.9°C 36.6°F2.6°C 91% Calm Calm 1.6 mph2.6 kmh 29.40 in995.6 mb 0.00 in0.0 mm 0.00 in0.0 mm 0.00 in0.0 mm
04:20 AM 39.0°F3.9°C 36.6°F2.6°C 91% Calm Calm 0.7 mph1.1 kmh 29.40 in995.6 mb 0.00 in0.0 mm 0.00 in0.0 mm 0.00 in0.0 mm
04:15 AM 39.0°F3.9°C 36.6°F2.6°C 91% Calm Calm 0.7 mph1.1 kmh 29.40 in995.6 mb 0.00 in0.0 mm 0.00 in0.0 mm 0.00 in0.0 mm
04:10 AM 39.0°F3.9°C 36.6°F2.6°C 91% Calm Calm 1.6 mph2.6 kmh 29.40 in995.6 mb 0.00 in0.0 mm 0.00 in0.0 mm 0.00 in0.0 mm
04:05 AM 39.0°F3.9°C 36.6°F2.6°C 91% Calm Calm 1.6 mph2.6 kmh 29.40 in995.6 mb 0.00 in0.0 mm 0.00 in0.0 mm 0.00 in0.0 mm
04:00 AM 39.0°F3.9°C 36.6°F2.6°C 91% Calm Calm 2.2 mph3.5 kmh 29.40 in995.6 mb 0.00 in0.0 mm 0.00 in0.0 mm 0.00 in0.0 mm
03:55 AM 39.0°F3.9°C 36.6°F2.6°C 91% 0.7 mph NW1.1 kmh NW 3.1 mph5.0 kmh 29.40 in995.6 mb 0.00 in0.0 mm 0.00 in0.0 mm 0.00 in0.0 mm
03:50 AM 39.2°F4.0°C 36.8°F2.7°C 91% 1.6 mph NW2.6 kmh NW 3.1 mph5.0 kmh 29.40 in995.6 mb 0.00 in0.0 mm 0.00 in0.0 mm 0.00 in0.0 mm
03:45 AM 39.6°F4.2°C 37.2°F2.9°C 91% 0.7 mph NW1.1 kmh NW 2.2 mph3.5 kmh 29.40 in995.6 mb 0.00 in0.0 mm 0.00 in0.0 mm 0.00 in0.0 mm
03:40 AM 40.3°F4.6°C 37.9°F3.3°C 91% 0.7 mph NW1.1 kmh NW 1.6 mph2.6 kmh 29.40 in995.6 mb 0.00 in0.0 mm 0.00 in0.0 mm 0.00 in0.0 mm
03:35 AM 40.5°F4.7°C 38.0°F3.3°C 91% Calm Calm 1.6 mph2.6 kmh 29.40 in995.6 mb 0.00 in0.0 mm 0.00 in0.0 mm 0.00 in0.0 mm
03:30 AM 40.8°F4.9°C 38.4°F3.6°C 91% Calm Calm 1.6 mph2.6 kmh 29.40 in995.6 mb 0.00 in0.0 mm 0.00 in0.0 mm 0.00 in0.0 mm
03:25 AM 40.8°F4.9°C 38.4°F3.6°C 91% Calm Calm 1.6 mph2.6 kmh 29.40 in995.6 mb 0.00 in0.0 mm 0.00 in0.0 mm 0.00 in0.0 mm
03:20 AM 40.5°F4.7°C 38.0°F3.3°C 91% 0.7 mph NW1.1 kmh NW 1.6 mph2.6 kmh 29.40 in995.6 mb 0.00 in0.0 mm 0.00 in0.0 mm 0.00 in0.0 mm
03:15 AM 40.5°F4.7°C 38.0°F3.3°C 91% Calm Calm 1.6 mph2.6 kmh 29.40 in995.6 mb 0.00 in0.0 mm 0.00 in0.0 mm 0.00 in0.0 mm
03:10 AM 40.5°F4.7°C 38.0°F3.3°C 91% Calm Calm 1.6 mph2.6 kmh 29.40 in995.6 mb 0.00 in0.0 mm 0.00 in0.0 mm 0.00 in0.0 mm
03:05 AM 40.8°F4.9°C 38.4°F3.6°C 91% 0.7 mph NW1.1 kmh NW 3.1 mph5.0 kmh 29.40 in995.6 mb 0.00 in0.0 mm 0.00 in0.0 mm 0.00 in0.0 mm
03:00 AM 40.8°F4.9°C 38.4°F3.6°C 91% Calm Calm 3.1 mph5.0 kmh 29.40 in995.6 mb 0.00 in0.0 mm 0.00 in0.0 mm 0.00 in0.0 mm
02:55 AM 40.8°F4.9°C 38.4°F3.6°C 91% 2.2 mph NW3.5 kmh NW 3.1 mph5.0 kmh 29.40 in995.6 mb 0.00 in0.0 mm 0.00 in0.0 mm 0.00 in0.0 mm
02:50 AM 41.4°F5.2°C 38.9°F3.8°C 91% 1.6 mph NW2.6 kmh NW 3.1 mph5.0 kmh 29.40 in995.6 mb 0.00 in0.0 mm 0.00 in0.0 mm 0.00 in0.0 mm
02:45 AM 41.5°F5.3°C 39.1°F3.9°C 91% Calm Calm 2.2 mph3.5 kmh 29.40 in995.6 mb 0.00 in0.0 mm 0.00 in0.0 mm 0.00 in0.0 mm
02:40 AM 41.7°F5.4°C 39.3°F4.1°C 91% 0.7 mph NW1.1 kmh NW 3.8 mph6.1 kmh 29.40 in995.6 mb 0.00 in0.0 mm 0.00 in0.0 mm 0.00 in0.0 mm
02:35 AM 41.9°F5.5°C 39.5°F4.2°C 91% 0.7 mph NW1.1 kmh NW 3.8 mph6.1 kmh 29.40 in995.6 mb 0.00 in0.0 mm 0.00 in0.0 mm 0.00 in0.0 mm
02:30 AM 42.4°F5.8°C 40.0°F4.4°C 91% 1.6 mph NW2.6 kmh NW 4.5 mph7.2 kmh 29.40 in995.6 mb 0.00 in0.0 mm 0.00 in0.0 mm 0.00 in0.0 mm
02:25 AM 42.4°F5.8°C 40.0°F4.4°C 91% 0.7 mph NW1.1 kmh NW 4.5 mph7.2 kmh 29.40 in995.6 mb 0.00 in0.0 mm 0.00 in0.0 mm 0.00 in0.0 mm
02:20 AM 41.9°F5.5°C 39.5°F4.2°C 91% 3.1 mph NW5.0 kmh NW 3.8 mph6.1 kmh 29.40 in995.6 mb 0.00 in0.0 mm 0.00 in0.0 mm 0.00 in0.0 mm
02:15 AM 41.5°F5.3°C 39.1°F3.9°C 91% 1.6 mph NW2.6 kmh NW 6.0 mph9.7 kmh 29.40 in995.6 mb 0.00 in0.0 mm 0.00 in0.0 mm 0.00 in0.0 mm
02:10 AM 41.5°F5.3°C 39.1°F3.9°C 91% 1.6 mph NW2.6 kmh NW 6.0 mph9.7 kmh 29.40 in995.6 mb 0.00 in0.0 mm 0.00 in0.0 mm 0.00 in0.0 mm
02:05 AM 42.1°F5.6°C 39.6°F4.2°C 91% 1.6 mph NW2.6 kmh NW 3.8 mph6.1 kmh 29.40 in995.6 mb 0.00 in0.0 mm 0.00 in0.0 mm 0.00 in0.0 mm
02:00 AM 41.9°F5.5°C 39.5°F4.2°C 91% Calm Calm 3.8 mph6.1 kmh 29.40 in995.6 mb 0.00 in0.0 mm 0.00 in0.0 mm 0.00 in0.0 mm
01:55 AM 40.8°F4.9°C 38.4°F3.6°C 91% 2.2 mph NW3.5 kmh NW 3.1 mph5.0 kmh 29.40 in995.6 mb 0.00 in0.0 mm 0.00 in0.0 mm 0.00 in0.0 mm
01:50 AM 39.7°F4.3°C 37.3°F2.9°C 91% 1.6 mph NW2.6 kmh NW 3.8 mph6.1 kmh 29.40 in995.6 mb 0.00 in0.0 mm 0.00 in0.0 mm 0.00 in0.0 mm
01:45 AM 39.9°F4.4°C 37.5°F3.1°C 91% 1.6 mph NW2.6 kmh NW 3.8 mph6.1 kmh 29.40 in995.6 mb 0.00 in0.0 mm 0.00 in0.0 mm 0.00 in0.0 mm
01:40 AM 39.7°F4.3°C 37.3°F2.9°C 91% 2.2 mph NW3.5 kmh NW 3.8 mph6.1 kmh 29.40 in995.6 mb 0.00 in0.0 mm 0.00 in0.0 mm 0.00 in0.0 mm
01:35 AM 39.2°F4.0°C 36.8°F2.7°C 91% 0.7 mph NW1.1 kmh NW 2.2 mph3.5 kmh 29.40 in995.6 mb 0.00 in0.0 mm 0.00 in0.0 mm 0.00 in0.0 mm
01:30 AM 39.2°F4.0°C 36.8°F2.7°C 91% 0.7 mph NW1.1 kmh NW 2.2 mph3.5 kmh 29.40 in995.6 mb 0.00 in0.0 mm 0.00 in0.0 mm 0.00 in0.0 mm
01:25 AM 39.6°F4.2°C 37.2°F2.9°C 91% Calm Calm 1.6 mph2.6 kmh 29.40 in995.6 mb 0.00 in0.0 mm 0.00 in0.0 mm 0.00 in0.0 mm
01:20 AM 39.4°F4.1°C 37.0°F2.8°C 91% Calm Calm 1.6 mph2.6 kmh 29.40 in995.6 mb 0.00 in0.0 mm 0.00 in0.0 mm 0.00 in0.0 mm
01:15 AM 39.4°F4.1°C 37.0°F2.8°C 91% Calm Calm 2.2 mph3.5 kmh 29.40 in995.6 mb 0.00 in0.0 mm 0.00 in0.0 mm 0.00 in0.0 mm
01:10 AM 39.4°F4.1°C 37.0°F2.8°C 91% 0.7 mph NW1.1 kmh NW 3.1 mph5.0 kmh 29.40 in995.6 mb 0.00 in0.0 mm 0.00 in0.0 mm 0.00 in0.0 mm
01:05 AM 39.6°F4.2°C 37.2°F2.9°C 91% 1.6 mph NW2.6 kmh NW 3.1 mph5.0 kmh 29.40 in995.6 mb 0.00 in0.0 mm 0.00 in0.0 mm 0.00 in0.0 mm
01:00 AM 40.1°F4.5°C 37.7°F3.2°C 91% 1.6 mph NW2.6 kmh NW 3.1 mph5.0 kmh 29.40 in995.6 mb 0.00 in0.0 mm 0.00 in0.0 mm 0.00 in0.0 mm
12:55 AM 40.5°F4.7°C 38.0°F3.3°C 91% Calm Calm 1.6 mph2.6 kmh 29.40 in995.6 mb 0.00 in0.0 mm 0.00 in0.0 mm 0.00 in0.0 mm
12:50 AM 40.5°F4.7°C 38.0°F3.3°C 91% Calm Calm 1.6 mph2.6 kmh 29.40 in995.6 mb 0.00 in0.0 mm 0.00 in0.0 mm 0.00 in0.0 mm
12:45 AM 40.6°F4.8°C 38.2°F3.4°C 91% Calm Calm 1.6 mph2.6 kmh 29.40 in995.6 mb 0.00 in0.0 mm 0.00 in0.0 mm 0.00 in0.0 mm
12:40 AM 41.0°F5.0°C 38.6°F3.7°C 91% Calm Calm 1.6 mph2.6 kmh 29.40 in995.6 mb 0.00 in0.0 mm 0.00 in0.0 mm 0.00 in0.0 mm
12:35 AM 41.0°F5.0°C 38.6°F3.7°C 91% 0.7 mph NW1.1 kmh NW 2.2 mph3.5 kmh 29.40 in995.6 mb 0.00 in0.0 mm 0.00 in0.0 mm 0.00 in0.0 mm
12:30 AM 41.4°F5.2°C 38.9°F3.8°C 91% 0.7 mph NW1.1 kmh NW 2.2 mph3.5 kmh 29.40 in995.6 mb 0.00 in0.0 mm 0.00 in0.0 mm 0.00 in0.0 mm
12:25 AM 41.7°F5.4°C 39.3°F4.1°C 91% 1.6 mph NW2.6 kmh NW 2.2 mph3.5 kmh 29.40 in995.6 mb 0.00 in0.0 mm 0.00 in0.0 mm 0.00 in0.0 mm
12:20 AM 41.7°F5.4°C 39.3°F4.1°C 91% 0.7 mph NW1.1 kmh NW 1.6 mph2.6 kmh 29.40 in995.6 mb 0.00 in0.0 mm 0.00 in0.0 mm 0.00 in0.0 mm
12:15 AM 41.9°F5.5°C 39.5°F4.2°C 91% Calm Calm 1.6 mph2.6 kmh 29.40 in995.6 mb 0.00 in0.0 mm 0.00 in0.0 mm 0.00 in0.0 mm
12:10 AM 42.1°F5.6°C 39.6°F4.2°C 91% Calm Calm 1.6 mph2.6 kmh 29.40 in995.6 mb 0.00 in0.0 mm 0.00 in0.0 mm 0.00 in0.0 mm
12:05 AM 42.3°F5.7°C 39.8°F4.3°C 91% Calm Calm 1.6 mph2.6 kmh 29.40 in995.6 mb 0.00 in0.0 mm 0.00 in0.0 mm 0.00 in0.0 mm
12:00 AM 42.3°F5.7°C 39.8°F4.3°C 91% Calm Calm 3.1 mph5.0 kmh 29.40 in995.6 mb 0.00 in0.0 mm 0.00 in0.0 mm 0.00 in0.0 mm